Terminal Aerodrome Forecast
Issued by NWS

Home | Current Version | Previous Version | Text Only | Print | Product List | Glossary On
Versions: 1 2 3 4 5 6 7 8 9 10 11 12 13 14 15 16 17 18
000
FTUS42 KTBW 240542
TAFPGD
TAF
KPGD 240542Z 2406/2506 07006KT P6SM SCT025 SCT250
     FM241400 09010KT P6SM SCT035 SCT250
     FM241900 10012KT P6SM VCTS BKN050CB BKN100
     FM250000 11010KT P6SM BKN050 OVC100
     FM250300 09012G16KT P6SM SCT050 SCT100 BKN250=

USA.gov is the U.S. government's official web portal to all federal, state and local government web resources and services.